Time;durP1;ratioP1;P1;durP2;ratioP2;P2;SDS_P1;SDS_P2;PMS_P1;PMS_P2;Temp;Humidity;BMP_temperature;BMP_pressure;BME280_temperature;BME280_humidity;BME280_pressure;Samples;Min_cycle;Max_cycle;Signal;HPM_P1;HPM_P2
2022/08/13 00:02:09;;;;;;;6.83;3.83;;;21.90;1.00;;;;;;6274822;28;20232;-53
2022/08/13 00:05:24;;;;;;;4.97;4.57;;;21.90;1.00;;;;;;6279914;28;20718;-53
2022/08/13 00:08:48;;;;;;;4.30;3.90;;;21.90;1.00;;;;;;6258196;28;20556;-54
2022/08/13 00:15:21;;;;;;;3.77;3.47;;;21.80;1.00;;;;;;6277126;28;20236;-54
2022/08/13 00:18:24;;;;;;;3.90;3.67;;;21.80;1.00;;;;;;6263848;28;20619;-53
2022/08/13 00:21:33;;;;;;;3.60;3.50;;;21.80;1.00;;;;;;6258526;28;20376;-54
2022/08/13 00:24:57;;;;;;;3.93;3.80;;;21.70;1.00;;;;;;6257637;28;20235;-52
2022/08/13 00:28:02;;;;;;;3.90;3.80;;;21.60;1.00;;;;;;6258024;28;20729;-54
2022/08/13 00:31:07;;;;;;;4.10;3.80;;;21.70;1.00;;;;;;6256840;28;20761;-53
2022/08/13 00:34:12;;;;;;;4.27;3.97;;;21.60;1.00;;;;;;6273694;28;20232;-55
2022/08/13 00:37:17;;;;;;;4.10;3.90;;;21.60;1.00;;;;;;6278738;28;20261;-55
2022/08/13 00:40:28;;;;;;;4.20;3.90;;;21.60;1.00;;;;;;6275837;28;20359;-54
2022/08/13 00:43:34;;;;;;;7.33;4.30;;;21.60;1.00;;;;;;6234780;28;20229;-53
2022/08/13 00:46:39;;;;;;;6.67;4.23;;;21.50;1.00;;;;;;6280574;28;20744;-55
2022/08/13 00:49:46;;;;;;;4.23;3.90;;;21.50;1.00;;;;;;6282556;28;20853;-54
2022/08/13 00:52:53;;;;;;;5.97;3.90;;;21.50;1.00;;;;;;6282929;28;20234;-54
2022/08/13 00:55:59;;;;;;;3.67;3.47;;;21.50;1.00;;;;;;6276597;28;20251;-54
2022/08/13 00:59:07;;;;;;;5.03;3.87;;;21.40;1.00;;;;;;6256913;28;20465;-54
2022/08/13 01:02:13;;;;;;;3.80;3.50;;;21.30;1.00;;;;;;6258351;28;20291;-56
2022/08/13 01:05:20;;;;;;;3.80;3.60;;;21.30;1.00;;;;;;6281090;28;20237;-55
2022/08/13 01:08:24;;;;;;;3.90;3.60;;;21.30;1.00;;;;;;6291608;28;20249;-55
2022/08/13 01:11:33;;;;;;;3.70;3.60;;;21.20;1.00;;;;;;6291025;28;20249;-54
2022/08/13 01:14:37;;;;;;;4.13;3.93;;;21.20;1.00;;;;;;6288889;28;20238;-55
2022/08/13 01:17:41;;;;;;;4.60;4.00;;;21.20;1.00;;;;;;6296685;28;20233;-54
2022/08/13 01:21:02;;;;;;;4.00;3.80;;;21.10;1.00;;;;;;6293125;28;20246;-54
2022/08/13 01:24:10;;;;;;;3.90;3.77;;;21.10;1.00;;;;;;6264282;28;20230;-53
2022/08/13 01:27:18;;;;;;;4.50;4.13;;;21.00;1.00;;;;;;6269953;28;20245;-54
2022/08/13 01:30:23;;;;;;;4.17;4.03;;;21.00;1.00;;;;;;6267031;28;20316;-53
2022/08/13 01:33:27;;;;;;;4.67;4.30;;;21.00;1.00;;;;;;6272309;28;20225;-54
2022/08/13 01:36:38;;;;;;;3.77;3.67;;;20.90;1.00;;;;;;6262376;28;20610;-55
2022/08/13 01:39:59;;;;;;;4.80;4.27;;;20.90;1.00;;;;;;6261492;28;20261;-54
2022/08/13 01:43:04;;;;;;;4.00;3.80;;;20.80;1.00;;;;;;6262584;28;20230;-54
2022/08/13 01:46:26;;;;;;;4.50;4.30;;;20.80;1.00;;;;;;6276489;28;20246;-52
2022/08/13 01:52:51;;;;;;;6.27;4.00;;;20.70;1.00;;;;;;6266955;28;20240;-54
2022/08/13 01:55:58;;;;;;;4.03;3.90;;;20.80;1.00;;;;;;6285627;28;20588;-54
2022/08/13 01:59:21;;;;;;;4.27;4.13;;;20.70;1.00;;;;;;6278610;28;20265;-55
2022/08/13 02:02:27;;;;;;;4.43;4.23;;;20.70;1.00;;;;;;6284056;28;20260;-55
2022/08/13 02:05:47;;;;;;;4.67;4.30;;;20.70;1.00;;;;;;6279958;28;20317;-54
2022/08/13 02:09:10;;;;;;;4.43;4.13;;;20.70;1.00;;;;;;6279068;28;20378;-54
2022/08/13 02:12:35;;;;;;;4.17;4.00;;;20.70;1.00;;;;;;6261346;28;20600;-52
2022/08/13 02:15:40;;;;;;;4.63;4.37;;;20.70;1.00;;;;;;6281717;28;20238;-54
2022/08/13 02:18:44;;;;;;;3.80;3.70;;;20.60;1.00;;;;;;6272099;28;20715;-54
2022/08/13 02:21:47;;;;;;;4.20;4.00;;;20.60;1.00;;;;;;6284886;28;20904;-53
2022/08/13 02:24:52;;;;;;;3.87;3.77;;;20.60;1.00;;;;;;6280142;28;20805;-54
2022/08/13 02:27:57;;;;;;;4.73;4.43;;;20.60;1.00;;;;;;6297186;28;20240;-56
2022/08/13 02:31:00;;;;;;;4.10;3.93;;;20.50;1.00;;;;;;6276526;28;20461;-54
2022/08/13 02:34:04;;;;;;;4.30;4.00;;;20.50;1.00;;;;;;6281236;28;20570;-54
2022/08/13 02:37:11;;;;;;;4.50;4.30;;;20.50;1.00;;;;;;6285056;28;20237;-54
2022/08/13 02:44:00;;;;;;;4.00;3.80;;;20.40;1.00;;;;;;6267575;28;20272;-55
2022/08/13 02:47:04;;;;;;;4.20;4.10;;;20.30;1.00;;;;;;6284421;28;20260;-54
2022/08/13 02:50:08;;;;;;;4.37;4.17;;;20.30;1.00;;;;;;6279869;28;20447;-54
2022/08/13 02:53:14;;;;;;;4.20;4.10;;;20.20;1.00;;;;;;6260209;28;20238;-54
2022/08/13 02:56:33;;;;;;;4.40;4.20;;;20.20;1.00;;;;;;6259395;28;20792;-55
2022/08/13 02:59:37;;;;;;;4.10;4.00;;;20.20;1.00;;;;;;6259643;28;20321;-54
2022/08/13 03:03:00;;;;;;;4.93;4.47;;;20.20;1.00;;;;;;6283641;28;20353;-55
2022/08/13 03:06:08;;;;;;;4.50;4.37;;;20.10;1.00;;;;;;6283517;28;20609;-55
2022/08/13 03:09:11;;;;;;;4.40;4.13;;;20.10;1.00;;;;;;6271125;28;20272;-55
2022/08/13 03:12:20;;;;;;;5.57;4.50;;;20.10;1.00;;;;;;6259442;28;20234;-54
2022/08/13 03:15:36;;;;;;;6.23;4.70;;;20.10;1.00;;;;;;6279277;28;20301;-53
2022/08/13 03:19:00;;;;;;;5.20;4.80;;;20.10;1.00;;;;;;6258839;28;20250;-54
2022/08/13 03:22:05;;;;;;;4.67;4.57;;;20.10;1.00;;;;;;6259064;28;20369;-54
2022/08/13 03:25:08;;;;;;;4.53;4.23;;;20.10;1.00;;;;;;6258479;28;20240;-54
2022/08/13 03:28:11;;;;;;;4.20;4.10;;;20.00;1.00;;;;;;6258110;28;20294;-53
2022/08/13 03:31:16;;;;;;;4.10;3.97;;;20.00;1.00;;;;;;6257025;28;20375;-54
2022/08/13 03:34:20;;;;;;;4.10;4.00;;;20.00;1.00;;;;;;6271899;28;20291;-53
2022/08/13 03:37:25;;;;;;;4.40;4.00;;;20.00;1.00;;;;;;6279429;28;20245;-54
2022/08/13 03:41:00;;;;;;;4.13;3.97;;;20.00;1.00;;;;;;6282616;28;20324;-55
2022/08/13 03:43:53;;;;;;;4.97;4.57;;;20.00;1.00;;;;;;6280452;28;20225;-55
2022/08/13 03:46:59;;;;;;;4.30;4.20;;;20.00;1.00;;;;;;6283265;28;20593;-54
2022/08/13 03:50:05;;;;;;;4.60;4.40;;;19.90;1.00;;;;;;6282806;28;20237;-54
2022/08/13 03:53:10;;;;;;;3.90;3.70;;;20.00;1.00;;;;;;6283914;28;20624;-56
2022/08/13 03:56:33;;;;;;;4.20;4.00;;;20.00;1.00;;;;;;6283653;28;20245;-54
2022/08/13 03:59:40;;;;;;;4.87;4.63;;;19.90;1.00;;;;;;6282466;28;20260;-55
2022/08/13 04:02:52;;;;;;;4.83;4.63;;;19.90;1.00;;;;;;6284140;28;20230;-53
2022/08/13 04:05:58;;;;;;;4.87;4.67;;;19.90;1.00;;;;;;6278169;28;20713;-55
2022/08/13 04:09:03;;;;;;;4.37;4.23;;;19.90;1.00;;;;;;6281922;28;20330;-54
2022/08/13 04:12:10;;;;;;;4.63;4.43;;;19.90;1.00;;;;;;6283394;28;20233;-54
2022/08/13 04:15:13;;;;;;;4.90;4.70;;;20.00;1.00;;;;;;6281316;28;20310;-54
2022/08/13 04:18:18;;;;;;;5.07;4.70;;;20.00;1.00;;;;;;6278351;28;20226;-55
2022/08/13 04:21:28;;;;;;;5.57;5.17;;;20.00;1.00;;;;;;6283493;28;20241;-56
2022/08/13 04:24:33;;;;;;;6.13;5.53;;;20.10;1.00;;;;;;6274748;28;20261;-54
2022/08/13 04:27:36;;;;;;;5.27;5.07;;;20.10;1.00;;;;;;6282594;28;20249;-55
2022/08/13 04:30:41;;;;;;;4.63;4.43;;;20.10;1.00;;;;;;6282622;28;20259;-54
2022/08/13 04:33:46;;;;;;;5.17;4.97;;;20.10;1.00;;;;;;6282346;28;20256;-54
2022/08/13 04:37:11;;;;;;;4.97;4.77;;;20.10;1.00;;;;;;6274382;28;20746;-55
2022/08/13 04:40:22;;;;;;;5.37;5.13;;;20.20;1.00;;;;;;6282236;28;20271;-55
2022/08/13 04:43:33;;;;;;;7.17;5.43;;;20.20;1.00;;;;;;6277084;28;20229;-55
2022/08/13 04:46:40;;;;;;;5.63;5.40;;;20.20;1.00;;;;;;6275540;28;20249;-53
2022/08/13 04:49:49;;;;;;;6.03;5.53;;;20.20;1.00;;;;;;6283029;28;20687;-54
2022/08/13 04:52:52;;;;;;;4.77;4.57;;;20.20;1.00;;;;;;6278783;28;20234;-54
2022/08/13 04:55:57;;;;;;;5.70;5.40;;;20.30;1.00;;;;;;6285246;28;20251;-55
2022/08/13 04:59:20;;;;;;;5.33;5.10;;;20.30;1.00;;;;;;6286797;28;20233;-54
2022/08/13 05:02:24;;;;;;;4.80;4.50;;;20.30;1.00;;;;;;6286939;28;20233;-58
2022/08/13 05:05:32;;;;;;;4.60;4.37;;;20.30;1.00;;;;;;6285317;28;20323;-54
2022/08/13 05:08:44;;;;;;;5.53;5.23;;;20.40;1.00;;;;;;6287032;28;20225;-55
2022/08/13 05:11:58;;;;;;;5.27;5.00;;;20.40;1.00;;;;;;6286239;28;20221;-55
2022/08/13 05:15:08;;;;;;;6.60;5.27;;;20.50;1.00;;;;;;6288463;28;20228;-54
2022/08/13 05:18:33;;;;;;;5.50;5.20;;;20.60;1.00;;;;;;6285668;28;20576;-54
2022/08/13 05:21:37;;;;;;;6.13;5.40;;;20.70;1.00;;;;;;6283917;28;20375;-55
2022/08/13 05:25:00;;;;;;;5.20;4.90;;;20.80;1.00;;;;;;6278445;28;20233;-54
2022/08/13 05:28:23;;;;;;;5.57;5.07;;;20.90;1.00;;;;;;6286187;28;20503;-55
2022/08/13 05:31:33;;;;;;;5.90;5.23;;;21.00;1.00;;;;;;6279750;28;20240;-54
2022/08/13 05:34:59;;;;;;;6.10;5.60;;;21.10;1.00;;;;;;6282534;28;20706;-54
2022/08/13 05:38:05;;;;;;;6.37;5.90;;;21.20;1.00;;;;;;6284409;28;20371;-53
2022/08/13 05:41:23;;;;;;;6.07;5.57;;;21.40;1.00;;;;;;6285228;28;20241;-54
2022/08/13 05:44:26;;;;;;;6.07;5.67;;;21.50;1.00;;;;;;6281532;28;20300;-54
2022/08/13 05:47:29;;;;;;;6.13;5.77;;;21.80;1.00;;;;;;6281193;28;20245;-55
2022/08/13 05:50:42;;;;;;;6.63;5.83;;;22.20;1.00;;;;;;6286614;28;20297;-54
2022/08/13 05:53:53;;;;;;;6.87;6.13;;;22.50;1.00;;;;;;6286327;28;20365;-54
2022/08/13 05:57:16;;;;;;;6.00;5.50;;;22.80;1.00;;;;;;6286453;28;20230;-54
2022/08/13 06:03:41;;;;;;;5.30;5.10;;;23.10;1.00;;;;;;6284214;28;20376;-60
2022/08/13 06:07:04;;;;;;;6.37;6.03;;;23.20;1.00;;;;;;6285773;28;20228;-55
2022/08/13 06:10:09;;;;;;;6.07;5.50;;;23.30;1.00;;;;;;6281709;28;20703;-55
2022/08/13 06:13:14;;;;;;;5.73;5.40;;;23.30;1.00;;;;;;6284605;28;20217;-55
2022/08/13 06:16:20;;;;;;;6.10;5.53;;;23.40;1.00;;;;;;6285267;28;20255;-54
2022/08/13 06:19:44;;;;;;;6.40;5.53;;;23.40;1.00;;;;;;6277601;28;20324;-55
2022/08/13 06:22:54;;;;;;;6.00;5.50;;;23.50;1.00;;;;;;6285218;28;20253;-54
2022/08/13 06:26:00;;;;;;;5.80;5.40;;;23.60;1.00;;;;;;6284724;28;20299;-54
2022/08/13 06:29:05;;;;;;;5.80;5.50;;;23.70;1.00;;;;;;6283848;28;20769;-55
2022/08/13 06:32:14;;;;;;;6.40;5.90;;;23.80;1.00;;;;;;6284792;28;20306;-53
2022/08/13 06:35:37;;;;;;;6.20;5.60;;;23.90;1.00;;;;;;6277929;28;20237;-55
2022/08/13 06:38:50;;;;;;;6.47;5.43;;;24.00;1.00;;;;;;6251329;28;20237;-55
2022/08/13 06:41:55;;;;;;;6.10;5.70;;;24.20;1.00;;;;;;6275180;28;20233;-54
2022/08/13 06:45:06;;;;;;;6.27;5.97;;;24.30;1.00;;;;;;6281312;28;20232;-54
2022/08/13 06:48:10;;;;;;;7.17;6.70;;;24.40;1.00;;;;;;6284904;28;20640;-53
2022/08/13 06:51:20;;;;;;;6.77;6.37;;;24.50;1.00;;;;;;6284242;28;20618;-54
2022/08/13 06:54:24;;;;;;;6.03;5.70;;;24.60;1.00;;;;;;6283563;28;20237;-55
2022/08/13 06:57:36;;;;;;;6.50;6.00;;;24.80;1.00;;;;;;6284754;28;20257;-49
2022/08/13 07:00:59;;;;;;;5.67;5.33;;;24.90;1.00;;;;;;6277391;28;20237;-56
2022/08/13 07:04:10;;;;;;;6.40;5.50;;;25.00;1.00;;;;;;6274380;28;20238;-53
2022/08/13 07:07:31;;;;;;;6.30;5.80;;;25.10;1.00;;;;;;6283751;28;20713;-53
2022/08/13 07:10:40;;;;;;;6.87;5.40;;;25.30;1.00;;;;;;6284066;28;20240;-54
2022/08/13 07:13:47;;;;;;;4.97;4.60;;;25.40;1.00;;;;;;6275624;28;20286;-55
2022/08/13 07:16:50;;;;;;;5.80;5.50;;;25.50;1.00;;;;;;6279193;28;20255;-56
2022/08/13 07:19:53;;;;;;;6.40;5.80;;;25.60;1.00;;;;;;6283922;28;20240;-55
2022/08/13 07:23:11;;;;;;;6.20;5.43;;;25.70;1.00;;;;;;6282237;28;20719;-56
2022/08/13 07:26:35;;;;;;;6.00;5.60;;;25.80;1.00;;;;;;6275262;28;20245;-54
2022/08/13 07:29:46;;;;;;;6.47;5.97;;;25.90;1.00;;;;;;6283732;28;20845;-55
2022/08/13 07:32:55;;;;;;;5.70;5.30;;;26.00;1.00;;;;;;6280119;28;20241;-54
2022/08/13 07:36:03;;;;;;;5.70;5.40;;;26.10;1.00;;;;;;6283263;28;20338;-55
2022/08/13 07:39:13;;;;;;;5.97;5.67;;;26.30;1.00;;;;;;6283075;28;20261;-54
2022/08/13 07:42:21;;;;;;;6.23;5.90;;;26.40;1.00;;;;;;6284264;28;20316;-55
2022/08/13 07:45:35;;;;;;;6.10;5.60;;;26.60;1.00;;;;;;6280646;28;20379;-53
2022/08/13 07:48:59;;;;;;;5.93;5.23;;;26.60;1.00;;;;;;6283548;28;20245;-54
2022/08/13 07:52:09;;;;;;;5.87;5.47;;;26.60;1.00;;;;;;6279926;28;20264;-54
2022/08/13 07:55:18;;;;;;;6.23;5.63;;;26.60;1.00;;;;;;6281902;28;20635;-55
2022/08/13 07:58:40;;;;;;;5.87;5.37;;;26.70;1.00;;;;;;6273749;28;20233;-54
2022/08/13 08:01:47;;;;;;;5.50;5.23;;;26.70;1.00;;;;;;6284324;28;20236;-56
2022/08/13 08:05:12;;;;;;;5.27;4.80;;;26.70;1.00;;;;;;6281817;28;20241;-55
2022/08/13 08:08:16;;;;;;;5.80;5.47;;;26.70;1.00;;;;;;6284499;28;20241;-55
2022/08/13 08:14:53;;;;;;;6.00;5.37;;;26.80;1.00;;;;;;6278201;28;20767;-54
2022/08/13 08:18:01;;;;;;;5.80;5.50;;;26.80;1.00;;;;;;6283854;28;20434;-55
2022/08/13 08:21:23;;;;;;;5.57;5.37;;;26.80;1.00;;;;;;6277125;28;20264;-53
2022/08/13 08:24:48;;;;;;;6.13;5.60;;;26.80;1.00;;;;;;6278040;28;20323;-55
2022/08/13 08:27:52;;;;;;;6.53;5.23;;;26.70;1.00;;;;;;6286546;28;20237;-54
2022/08/13 08:31:15;;;;;;;5.70;5.40;;;26.70;1.00;;;;;;6284254;28;20241;-55
2022/08/13 08:34:31;;;;;;;5.47;5.17;;;26.60;1.00;;;;;;6289275;28;20237;-54
2022/08/13 08:44:27;;;;;;;6.17;5.77;;;26.90;1.00;;;;;;6288079;28;20241;-55
2022/08/13 08:47:32;;;;;;;6.07;5.67;;;27.10;1.00;;;;;;6287253;28;20752;-55
2022/08/13 08:50:52;;;;;;;6.80;6.30;;;27.30;1.00;;;;;;6285474;28;20245;-55
2022/08/13 08:53:55;;;;;;;6.43;6.00;;;27.40;1.00;;;;;;6277694;28;20312;-56
2022/08/13 08:57:18;;;;;;;6.57;6.23;;;27.40;1.00;;;;;;6287110;28;20246;-55
2022/08/13 09:00:24;;;;;;;6.73;6.23;;;27.40;1.00;;;;;;6286112;28;20296;-55
2022/08/13 09:03:31;;;;;;;7.50;7.10;;;27.50;1.00;;;;;;6286751;28;20233;-55
2022/08/13 09:06:58;;;;;;;6.37;5.87;;;27.60;1.00;;;;;;6278722;28;20450;-55
2022/08/13 09:10:01;;;;;;;7.07;6.60;;;27.80;1.00;;;;;;6287283;28;20552;-54
2022/08/13 09:13:07;;;;;;;7.10;6.57;;;28.00;1.00;;;;;;6287053;28;20243;-56
2022/08/13 09:16:10;;;;;;;7.73;7.10;;;28.10;1.00;;;;;;6286252;28;20324;-55
2022/08/13 09:19:14;;;;;;;6.83;6.40;;;28.20;1.00;;;;;;6287105;28;20237;-55
2022/08/13 09:22:40;;;;;;;7.00;6.50;;;28.20;1.00;;;;;;6271547;28;20245;-55
2022/08/13 09:25:54;;;;;;;7.40;6.87;;;28.40;1.00;;;;;;6284479;28;20226;-54
2022/08/13 09:29:00;;;;;;;7.17;6.57;;;28.60;1.00;;;;;;6284756;28;20244;-54
2022/08/13 09:32:06;;;;;;;6.80;6.40;;;28.80;1.00;;;;;;6282232;28;20519;-55
2022/08/13 09:35:11;;;;;;;6.80;6.40;;;28.90;1.00;;;;;;6285391;28;20233;-56
2022/08/13 09:38:15;;;;;;;7.17;6.87;;;29.00;1.00;;;;;;6285137;28;20271;-54
2022/08/13 09:41:28;;;;;;;7.53;6.90;;;29.20;1.00;;;;;;6284149;28;20237;-54
2022/08/13 09:44:42;;;;;;;7.07;6.63;;;29.30;1.00;;;;;;6273673;28;20226;-56
2022/08/13 09:47:45;;;;;;;11.07;7.40;;;29.30;1.00;;;;;;6284917;28;20244;-56
2022/08/13 09:51:13;;;;;;;8.55;7.70;;;29.30;1.00;;;;;;6284004;28;20883;-55
2022/08/13 09:54:40;;;;;;;6.97;6.68;;;29.20;1.00;;;;;;6284990;28;20238;-53
2022/08/13 09:57:51;;;;;;;7.87;7.37;;;29.10;1.00;;;;;;6277825;28;20229;-56
2022/08/13 10:00:54;;;;;;;9.75;8.00;;;29.10;1.00;;;;;;6284291;28;20229;-56
2022/08/13 10:03:57;;;;;;;17.07;7.17;;;28.90;1.00;;;;;;6284325;28;20710;-56
2022/08/13 10:07:00;;;;;;;8.97;7.13;;;29.00;1.00;;;;;;6284638;28;20232;-54
2022/08/13 10:10:20;;;;;;;7.17;6.53;;;28.90;1.00;;;;;;6280192;28;20230;-54
2022/08/13 10:13:34;;;;;;;7.73;7.00;;;28.90;1.00;;;;;;6278786;28;20291;-55
2022/08/13 10:16:53;;;;;;;7.97;6.47;;;28.80;1.00;;;;;;6284861;28;20646;-53
2022/08/13 10:19:57;;;;;;;7.50;7.00;;;28.80;1.00;;;;;;6241257;28;1068966;-54
2022/08/13 10:23:02;;;;;;;6.73;6.43;;;28.70;1.00;;;;;;6277358;28;20279;-53
2022/08/13 10:26:07;;;;;;;7.43;6.67;;;28.50;1.00;;;;;;6286052;28;20309;-58
2022/08/13 10:29:11;;;;;;;10.17;8.00;;;28.40;1.00;;;;;;6276516;28;20248;-55
2022/08/13 10:32:34;;;;;;;8.90;7.90;;;27.90;1.00;;;;;;6285235;28;20264;-55
2022/08/13 10:35:38;;;;;;;10.17;7.57;;;27.60;1.00;;;;;;6256797;28;20809;-53
2022/08/13 10:38:45;;;;;;;8.00;7.27;;;27.40;1.00;;;;;;6285354;28;20248;-54
2022/08/13 10:42:00;;;;;;;7.87;7.13;;;27.30;1.00;;;;;;6282443;28;20230;-55
2022/08/13 10:45:06;;;;;;;6.60;6.20;;;27.10;1.00;;;;;;6277053;28;20604;-54
2022/08/13 10:48:11;;;;;;;6.63;6.03;;;27.10;1.00;;;;;;6285242;28;20240;-56
2022/08/13 10:51:14;;;;;;;7.03;6.07;;;27.10;1.00;;;;;;6276427;28;20308;-55
2022/08/13 10:54:28;;;;;;;6.17;5.87;;;27.10;1.00;;;;;;6284684;28;20241;-55
2022/08/13 10:57:34;;;;;;;6.67;6.33;;;26.90;1.00;;;;;;6278491;28;20740;-56
2022/08/13 11:00:59;;;;;;;7.07;6.43;;;26.90;1.00;;;;;;6272377;28;20298;-52
2022/08/13 11:04:05;;;;;;;6.83;6.30;;;26.80;1.00;;;;;;6276418;28;20285;-53
2022/08/13 11:07:11;;;;;;;7.60;6.13;;;26.80;1.00;;;;;;6280287;28;20237;-55
2022/08/13 11:10:18;;;;;;;7.57;6.87;;;26.80;1.00;;;;;;6278701;28;20623;-55
2022/08/13 11:13:23;;;;;;;7.83;6.93;;;26.80;1.00;;;;;;6279750;28;20243;-55
2022/08/13 11:16:57;;;;;;;6.30;5.80;;;26.80;1.00;;;;;;6272779;28;20233;-56
2022/08/13 11:20:13;;;;;;;7.07;6.37;;;26.80;1.00;;;;;;6284481;28;20824;-56
2022/08/13 11:23:21;;;;;;;7.13;6.53;;;26.80;1.00;;;;;;6284487;28;20245;-55
2022/08/13 11:26:24;;;;;;;7.00;6.70;;;26.80;1.00;;;;;;6278324;28;20619;-54
2022/08/13 11:29:44;;;;;;;11.30;7.67;;;26.80;1.00;;;;;;6283312;28;20594;-57
2022/08/13 11:32:47;;;;;;;7.83;7.33;;;26.90;1.00;;;;;;6278493;28;20252;-56
2022/08/13 11:35:52;;;;;;;8.33;7.60;;;26.80;1.00;;;;;;6277782;28;20875;-49
2022/08/13 11:38:56;;;;;;;8.03;7.30;;;26.80;1.00;;;;;;6283939;28;20232;-56
2022/08/13 11:41:59;;;;;;;7.70;7.07;;;26.80;1.00;;;;;;6284014;28;20363;-54
2022/08/13 11:45:05;;;;;;;7.93;7.20;;;26.80;1.00;;;;;;6274177;28;20237;-55
2022/08/13 11:48:08;;;;;;;8.40;7.70;;;26.70;1.00;;;;;;6280833;28;20745;-56
2022/08/13 11:51:12;;;;;;;7.67;7.17;;;26.60;1.00;;;;;;6283708;28;20636;-56
2022/08/13 11:54:14;;;;;;;7.50;7.10;;;26.50;1.00;;;;;;6279096;28;20286;-55
2022/08/13 11:57:35;;;;;;;7.60;7.00;;;26.40;1.00;;;;;;6284165;28;20252;-55
2022/08/13 12:00:54;;;;;;;7.07;6.67;;;26.40;1.00;;;;;;6282527;28;20393;-56
2022/08/13 12:03:57;;;;;;;6.97;6.50;;;26.30;1.00;;;;;;6281827;28;20282;-55
2022/08/13 12:07:20;;;;;;;6.93;6.50;;;26.30;1.00;;;;;;6277959;28;20244;-54
2022/08/13 12:10:23;;;;;;;7.57;7.07;;;26.30;1.00;;;;;;6277910;28;20238;-54
2022/08/13 12:13:46;;;;;;;7.37;6.60;;;26.30;1.00;;;;;;6278700;28;20229;-56
2022/08/13 12:16:57;;;;;;;7.37;6.80;;;26.30;1.00;;;;;;6271477;28;20325;-55
2022/08/13 12:20:00;;;;;;;7.30;6.97;;;26.40;1.00;;;;;;6273646;28;20250;-55
2022/08/13 12:23:03;;;;;;;7.10;6.47;;;26.40;1.00;;;;;;6283816;28;20224;-55
2022/08/13 12:26:06;;;;;;;7.27;6.70;;;26.50;1.00;;;;;;6283451;28;20403;-56
2022/08/13 12:29:09;;;;;;;6.80;6.40;;;26.60;1.00;;;;;;6282291;28;20233;-56
2022/08/13 12:32:15;;;;;;;6.93;6.40;;;26.80;1.00;;;;;;6282811;28;20233;-56
2022/08/13 12:35:20;;;;;;;7.07;6.53;;;26.80;1.00;;;;;;6283807;28;20756;-54
2022/08/13 12:38:43;;;;;;;7.10;6.70;;;26.80;1.00;;;;;;6275255;28;20237;-55
2022/08/13 12:42:01;;;;;;;7.13;6.70;;;26.80;1.00;;;;;;6282116;28;20382;-54
2022/08/13 12:45:06;;;;;;;7.40;7.03;;;26.80;1.00;;;;;;6275806;28;20256;-55
2022/08/13 12:48:31;;;;;;;6.33;6.13;;;26.90;1.00;;;;;;6275546;28;20632;-56
2022/08/13 12:51:35;;;;;;;6.87;6.47;;;27.10;1.00;;;;;;6275250;28;20243;-55
2022/08/13 12:54:55;;;;;;;7.07;6.67;;;27.20;1.00;;;;;;6281256;28;20230;-54
2022/08/13 12:58:16;;;;;;;7.13;6.70;;;27.30;1.00;;;;;;6279967;28;20737;-54
2022/08/13 13:01:25;;;;;;;8.07;6.60;;;27.50;1.00;;;;;;6281515;28;20249;-56
2022/08/13 13:04:35;;;;;;;7.30;6.60;;;27.60;1.00;;;;;;6276891;28;20241;-57
2022/08/13 13:07:38;;;;;;;6.13;5.63;;;27.60;1.00;;;;;;6276439;28;20328;-55
2022/08/13 13:11:04;;;;;;;5.90;5.50;;;27.80;1.00;;;;;;6275711;28;20230;-57
2022/08/13 13:14:16;;;;;;;5.90;5.60;;;27.90;1.00;;;;;;6282952;28;20233;-59
2022/08/13 13:17:40;;;;;;;6.07;5.63;;;28.00;1.00;;;;;;6279815;28;20237;-57
2022/08/13 13:21:05;;;;;;;5.43;5.13;;;28.00;1.00;;;;;;6277133;28;20233;-56
2022/08/13 13:24:13;;;;;;;5.47;5.10;;;27.90;1.00;;;;;;6280032;28;20237;-56
2022/08/13 13:27:21;;;;;;;5.07;4.77;;;28.00;1.00;;;;;;6276539;28;20241;-55
2022/08/13 13:30:45;;;;;;;5.80;5.30;;;28.20;1.00;;;;;;6279111;28;20233;-55
2022/08/13 13:34:04;;;;;;;5.00;4.63;;;28.40;1.00;;;;;;6282401;28;20634;-56
2022/08/13 13:37:10;;;;;;;5.50;5.10;;;28.60;1.00;;;;;;6286816;28;20307;-56
2022/08/13 13:40:13;;;;;;;4.93;4.83;;;28.80;1.00;;;;;;6285479;28;20272;-55
2022/08/13 13:43:18;;;;;;;4.87;4.53;;;28.80;1.00;;;;;;6286242;28;20237;-55
2022/08/13 13:46:27;;;;;;;5.57;5.30;;;28.70;1.00;;;;;;6285431;28;20233;-55
2022/08/13 13:49:29;;;;;;;6.10;5.07;;;28.80;1.00;;;;;;6285805;28;20752;-55
2022/08/13 13:52:36;;;;;;;5.83;5.43;;;28.80;1.00;;;;;;6284928;28;20384;-54
2022/08/13 13:55:50;;;;;;;5.50;5.00;;;29.00;1.00;;;;;;6281560;28;20238;-55
2022/08/13 13:58:55;;;;;;;5.60;4.97;;;29.10;1.00;;;;;;6285511;28;20232;-54
2022/08/13 14:02:02;;;;;;;5.57;5.17;;;29.00;1.00;;;;;;6285845;28;20599;-56
2022/08/13 14:05:08;;;;;;;5.90;5.63;;;29.00;1.00;;;;;;6284198;28;20447;-54
2022/08/13 14:08:23;;;;;;;5.80;5.60;;;29.00;1.00;;;;;;6285655;28;20399;-55
2022/08/13 14:11:26;;;;;;;5.50;5.30;;;29.10;1.00;;;;;;6279625;28;20606;-55
2022/08/13 14:14:31;;;;;;;6.05;5.55;;;29.40;1.00;;;;;;6283695;28;20341;-55
2022/08/13 14:17:34;;;;;;;5.97;5.63;;;29.80;1.00;;;;;;6284696;28;20706;-54
2022/08/13 14:20:41;;;;;;;5.78;5.38;;;30.10;1.00;;;;;;6277395;28;20525;-56
2022/08/13 14:23:45;;;;;;;7.47;5.80;;;30.10;1.00;;;;;;6283851;28;20234;-56
2022/08/13 14:26:49;;;;;;;5.60;5.30;;;30.20;1.00;;;;;;6285232;28;20233;-56
2022/08/13 14:29:54;;;;;;;6.43;5.40;;;30.20;1.00;;;;;;6284258;28;20545;-58
2022/08/13 14:32:57;;;;;;;6.45;6.03;;;30.30;1.00;;;;;;6281638;28;20225;-56
2022/08/13 14:36:08;;;;;;;5.88;5.18;;;30.30;1.00;;;;;;6285349;28;20248;-55
2022/08/13 14:39:13;;;;;;;6.60;6.00;;;30.30;1.00;;;;;;6284594;28;20233;-55
2022/08/13 14:42:26;;;;;;;6.70;6.30;;;30.20;1.00;;;;;;6285028;28;20230;-55
2022/08/13 14:45:53;;;;;;;6.68;6.20;;;30.20;1.00;;;;;;6283953;28;20647;-56
2022/08/13 14:49:03;;;;;;;10.20;6.43;;;30.10;1.00;;;;;;6282226;28;20246;-55
2022/08/13 14:52:07;;;;;;;7.60;6.50;;;30.00;1.00;;;;;;6280553;28;20548;-55
2022/08/13 14:55:15;;;;;;;7.25;6.57;;;30.00;1.00;;;;;;6284887;28;20274;-55
2022/08/13 14:58:19;;;;;;;6.30;5.75;;;30.10;1.00;;;;;;6277560;28;20266;-56
2022/08/13 15:01:37;;;;;;;7.40;6.85;;;30.30;1.00;;;;;;6275525;28;20242;-56
2022/08/13 15:04:44;;;;;;;6.07;5.78;;;30.40;1.00;;;;;;6284545;28;20245;-55
2022/08/13 15:08:01;;;;;;;6.90;6.45;;;30.40;1.00;;;;;;6273311;28;20703;-56
2022/08/13 15:11:20;;;;;;;6.97;6.15;;;30.60;1.00;;;;;;6280139;28;20249;-56
2022/08/13 15:14:23;;;;;;;7.20;6.55;;;30.80;1.00;;;;;;6283541;28;20340;-56
2022/08/13 15:17:28;;;;;;;6.90;6.55;;;30.80;1.00;;;;;;6283571;28;20237;-54
2022/08/13 15:20:48;;;;;;;7.10;6.60;;;30.90;1.00;;;;;;6262516;28;20489;-56
2022/08/13 15:24:02;;;;;;;7.18;6.55;;;30.90;1.00;;;;;;6284031;28;20234;-55
2022/08/13 15:27:06;;;;;;;7.13;6.07;;;31.00;1.00;;;;;;6284640;28;20225;-55
2022/08/13 15:30:12;;;;;;;8.25;6.68;;;31.10;1.00;;;;;;6275048;28;20237;-57
2022/08/13 15:33:19;;;;;;;6.88;6.47;;;31.20;1.00;;;;;;6278760;28;20742;-56
2022/08/13 15:36:23;;;;;;;7.10;6.32;;;31.30;1.00;;;;;;6282475;28;20239;-54
2022/08/13 15:39:46;;;;;;;6.65;6.07;;;31.00;1.00;;;;;;6280227;28;20610;-56
2022/08/13 15:42:52;;;;;;;7.07;6.43;;;30.80;1.00;;;;;;6284186;28;20230;-53
2022/08/13 15:45:56;;;;;;;6.85;6.20;;;30.50;1.00;;;;;;6280551;28;20245;-56
2022/08/13 15:49:00;;;;;;;7.45;6.95;;;30.40;1.00;;;;;;6278340;28;20717;-56
2022/08/13 15:52:03;;;;;;;8.13;7.50;;;30.30;1.00;;;;;;6278467;28;20240;-55
2022/08/13 15:55:08;;;;;;;8.15;6.70;;;30.10;1.00;;;;;;6282813;28;20251;-55
2022/08/13 15:58:13;;;;;;;6.55;6.30;;;30.10;1.00;;;;;;6281228;28;20230;-56
2022/08/13 16:01:26;;;;;;;7.63;6.53;;;30.00;1.00;;;;;;6282864;28;20234;-56
2022/08/13 16:04:34;;;;;;;7.50;7.00;;;30.00;1.00;;;;;;6282094;28;20256;-53
2022/08/13 16:07:40;;;;;;;7.95;7.25;;;29.90;1.00;;;;;;6280442;28;20229;-54
2022/08/13 16:10:54;;;;;;;7.85;7.15;;;29.90;1.00;;;;;;6283352;28;20477;-55
2022/08/13 16:14:03;;;;;;;6.95;6.53;;;29.90;1.00;;;;;;6282303;28;20318;-56
2022/08/13 16:17:06;;;;;;;6.82;6.40;;;29.80;1.00;;;;;;6282774;28;20382;-55
2022/08/13 16:20:11;;;;;;;6.68;6.25;;;29.80;1.00;;;;;;6282708;28;20245;-56
2022/08/13 16:23:18;;;;;;;7.80;7.30;;;29.80;1.00;;;;;;6273538;28;20245;-55
2022/08/13 16:26:23;;;;;;;6.88;6.28;;;29.80;1.00;;;;;;6282614;28;20237;-54
2022/08/13 16:29:33;;;;;;;7.38;6.72;;;29.90;1.00;;;;;;6281700;28;20337;-58
2022/08/13 16:32:41;;;;;;;7.50;7.03;;;30.00;1.00;;;;;;6277484;28;20245;-55
2022/08/13 16:35:47;;;;;;;7.50;7.05;;;30.00;1.00;;;;;;6283035;28;20280;-56
2022/08/13 16:38:51;;;;;;;7.05;6.65;;;30.00;1.00;;;;;;6275718;28;20241;-56
2022/08/13 16:41:54;;;;;;;7.57;6.95;;;30.00;1.00;;;;;;6282471;28;20470;-55
2022/08/13 16:45:00;;;;;;;8.82;6.60;;;30.10;1.00;;;;;;6281982;28;20858;-56
2022/08/13 16:48:07;;;;;;;7.25;6.75;;;30.00;1.00;;;;;;6277697;28;20375;-55
2022/08/13 16:51:10;;;;;;;7.32;6.57;;;29.90;1.00;;;;;;6287287;28;20237;-56
2022/08/13 16:54:14;;;;;;;9.32;7.68;;;29.80;1.00;;;;;;6286575;28;20372;-55
2022/08/13 16:57:44;;;;;;;8.48;7.95;;;29.60;1.00;;;;;;6286752;28;20289;-55
2022/08/13 17:00:48;;;;;;;7.63;7.10;;;29.50;1.00;;;;;;6286158;28;20422;-52
2022/08/13 17:10:55;;;;;;;7.93;7.33;;;29.10;1.00;;;;;;6276289;28;20391;-53
2022/08/13 17:13:59;;;;;;;8.17;7.70;;;28.90;1.00;;;;;;6286746;28;20225;-56